createdAt,value
2019-05-14T00:01:04.119Z,9.90
2019-05-14T00:05:05.493Z,9.70
2019-05-14T00:09:06.386Z,9.50
2019-05-14T00:13:07.253Z,9.50
2019-05-14T00:17:08.263Z,9.60
2019-05-14T00:21:09.163Z,9.70
2019-05-14T00:25:11.753Z,9.50
2019-05-14T00:29:12.823Z,9.60
2019-05-14T00:33:13.798Z,9.60
2019-05-14T00:37:14.716Z,9.50
2019-05-14T00:41:15.784Z,9.40
2019-05-14T00:45:16.951Z,9.10
2019-05-14T00:49:17.798Z,9.20
2019-05-14T00:53:20.739Z,8.70
2019-05-14T00:57:21.801Z,8.90
2019-05-14T01:01:22.693Z,9.60
2019-05-14T01:05:23.572Z,9.90
2019-05-14T01:09:24.517Z,9.90
2019-05-14T01:13:25.391Z,9.50
2019-05-14T01:17:26.432Z,9.20
2019-05-14T01:21:27.406Z,7.60
2019-05-14T01:25:28.401Z,7.90
2019-05-14T01:29:31.642Z,8.10
2019-05-14T01:33:32.312Z,8.10
2019-05-14T01:37:33.158Z,8.60
2019-05-14T01:41:34.043Z,9.00
2019-05-14T01:45:34.876Z,7.70
2019-05-14T01:49:35.733Z,8.60
2019-05-14T01:53:36.620Z,8.00
2019-05-14T01:57:37.560Z,7.70
2019-05-14T02:01:38.436Z,7.60
2019-05-14T02:05:41.473Z,6.30
2019-05-14T02:09:42.232Z,6.50
2019-05-14T02:13:43.211Z,6.60
2019-05-14T02:17:44.061Z,6.60
2019-05-14T02:21:44.925Z,6.80
2019-05-14T02:25:45.797Z,6.40
2019-05-14T02:29:46.677Z,6.80
2019-05-14T02:33:50.384Z,6.30
2019-05-14T02:37:50.735Z,7.00
2019-05-14T02:41:51.718Z,6.70
2019-05-14T02:46:05.944Z,7.40
2019-05-14T02:49:58.769Z,7.00
2019-05-14T02:53:59.145Z,7.50
2019-05-14T02:58:00.378Z,6.80
2019-05-14T03:02:01.236Z,7.10
2019-05-14T03:06:02.221Z,7.90
2019-05-14T03:10:05.309Z,8.40
2019-05-14T03:14:09.054Z,9.80
2019-05-14T03:18:09.530Z,9.80
2019-05-14T03:22:11.105Z,10.30
2019-05-14T03:26:12.078Z,10.20
2019-05-14T03:30:14.331Z,9.60
2019-05-14T03:34:15.298Z,9.90
2019-05-14T03:38:16.251Z,9.40
2019-05-14T03:42:19.404Z,9.50
2019-05-14T03:46:20.697Z,9.40
2019-05-14T03:50:21.775Z,9.40
2019-05-14T03:54:22.749Z,9.10
2019-05-14T03:58:23.871Z,9.00
2019-05-14T04:02:25.041Z,8.90
2019-05-14T04:06:30.144Z,8.80
2019-05-14T04:10:32.092Z,9.10
2019-05-14T04:14:34.677Z,9.10
2019-05-14T04:18:39.836Z,9.00
2019-05-14T04:22:39.445Z,8.90
2019-05-14T04:26:56.180Z,9.10
2019-05-14T04:30:49.521Z,9.00
2019-05-14T04:34:50.734Z,8.50
2019-05-14T04:38:55.295Z,9.00
2019-05-14T04:42:54.640Z,9.50
2019-05-14T04:46:55.527Z,9.20
2019-05-14T04:51:00.023Z,6.10
2019-05-14T04:54:59.594Z,5.60
2019-05-14T04:59:00.897Z,5.60
2019-05-14T05:03:02.269Z,6.10
2019-05-14T05:07:03.484Z,6.10
2019-05-14T05:11:04.611Z,6.90
2019-05-14T05:15:08.514Z,6.30
2019-05-14T05:19:10.461Z,5.80
2019-05-14T05:23:11.618Z,6.30
2019-05-14T05:27:12.498Z,6.90
2019-05-14T05:31:13.479Z,5.90
2019-05-14T05:35:14.376Z,8.30
2019-05-14T05:39:15.266Z,6.50
2019-05-14T05:43:16.151Z,6.50
2019-05-14T05:47:18.246Z,6.90
2019-05-14T05:51:19.485Z,6.30
2019-05-14T05:55:20.355Z,6.20
2019-05-14T05:59:21.269Z,8.10
2019-05-14T06:03:22.159Z,10.50
2019-05-14T06:07:23.136Z,11.40
2019-05-14T06:11:24.016Z,8.70
2019-05-14T06:15:25.000Z,8.30
2019-05-14T06:19:25.849Z,8.70
2019-05-14T06:23:28.479Z,8.60
2019-05-14T06:27:29.578Z,7.50
2019-05-14T06:31:30.444Z,7.10
2019-05-14T06:35:31.426Z,7.50
2019-05-14T06:39:32.312Z,7.30
2019-05-14T06:43:33.453Z,7.40
2019-05-14T06:47:34.446Z,7.50
2019-05-14T06:51:35.331Z,7.10
2019-05-14T06:55:36.201Z,7.40
2019-05-14T06:59:38.099Z,7.60
2019-05-14T07:03:39.374Z,8.10
2019-05-14T07:07:40.702Z,7.90
2019-05-14T07:11:41.723Z,8.20
2019-05-14T07:15:42.812Z,8.50
2019-05-14T07:19:43.660Z,8.70
2019-05-14T07:23:44.549Z,8.50
2019-05-14T07:27:45.549Z,9.40
2019-05-14T07:31:48.758Z,9.10
2019-05-14T07:35:49.223Z,9.40
2019-05-14T07:39:50.172Z,9.60
2019-05-14T07:43:51.055Z,9.00
2019-05-14T07:47:51.917Z,8.60
2019-05-14T07:51:52.805Z,9.80
2019-05-14T07:55:53.653Z,9.40
2019-05-14T07:59:54.674Z,10.30
2019-05-14T08:03:55.539Z,10.00
2019-05-14T08:07:58.486Z,9.50
2019-05-14T08:11:59.239Z,10.10
2019-05-14T08:16:00.099Z,9.90
2019-05-14T08:20:03.090Z,10.00
2019-05-14T08:24:03.963Z,10.00
2019-05-14T08:28:04.898Z,10.60
2019-05-14T08:32:08.327Z,10.50
2019-05-14T08:36:09.073Z,10.40
2019-05-14T08:40:10.400Z,11.30
2019-05-14T08:44:11.303Z,12.40
2019-05-14T08:48:12.216Z,12.00
2019-05-14T08:52:15.936Z,11.70
2019-05-14T08:56:15.948Z,12.50
2019-05-14T09:00:18.354Z,12.10
2019-05-14T09:04:22.276Z,12.00
2019-05-14T09:08:22.310Z,11.40
2019-05-14T09:12:23.198Z,11.80
2019-05-14T09:16:38.457Z,11.90
2019-05-14T09:20:29.005Z,12.20
2019-05-14T09:24:29.866Z,11.90
2019-05-14T09:28:30.835Z,12.20
2019-05-14T09:32:31.703Z,12.10
2019-05-14T09:36:32.580Z,12.40
2019-05-14T09:40:33.682Z,12.20
2019-05-14T09:44:34.650Z,12.50
2019-05-14T09:48:37.842Z,11.20
2019-05-14T09:52:39.100Z,11.20
2019-05-14T09:56:40.433Z,11.50
2019-05-14T10:00:41.417Z,11.80
2019-05-14T10:04:42.264Z,12.00
2019-05-14T10:08:43.167Z,13.10
2019-05-14T10:12:52.466Z,11.40
2019-05-14T10:16:49.035Z,13.70
2019-05-14T10:20:49.757Z,14.80
2019-05-14T10:24:50.756Z,12.60
2019-05-14T10:28:51.653Z,12.10
2019-05-14T10:32:52.556Z,11.50
2019-05-14T10:36:53.561Z,11.00
2019-05-14T10:40:54.750Z,11.00
2019-05-14T10:44:58.502Z,12.20
2019-05-14T10:49:03.493Z,12.20
2019-05-14T10:53:01.479Z,12.50
2019-05-14T10:57:02.679Z,13.60
2019-05-14T11:01:03.812Z,12.50
2019-05-14T11:05:05.172Z,11.90
2019-05-14T11:09:08.866Z,11.90
2019-05-14T11:13:09.257Z,12.10
2019-05-14T11:17:11.900Z,11.80
2019-05-14T11:21:24.981Z,13.10
2019-05-14T11:25:16.173Z,12.40
2019-05-14T11:29:18.565Z,12.00
2019-05-14T11:33:19.731Z,12.30
2019-05-14T11:37:20.707Z,12.50
2019-05-14T11:41:21.603Z,12.20
2019-05-14T11:45:22.705Z,12.20
2019-05-14T11:49:23.692Z,12.70
2019-05-14T11:53:24.701Z,12.90
2019-05-14T11:57:25.730Z,13.60
2019-05-14T12:01:29.634Z,13.80
2019-05-14T12:05:30.479Z,12.30
2019-05-14T12:09:31.617Z,12.80
2019-05-14T12:13:33.022Z,13.20
2019-05-14T12:17:34.265Z,14.40
2019-05-14T12:21:35.153Z,16.60
2019-05-14T12:25:36.172Z,15.40
2019-05-14T12:29:39.669Z,14.00
2019-05-14T12:33:40.019Z,15.50
2019-05-14T12:37:40.997Z,17.60
2019-05-14T12:41:41.990Z,15.70
2019-05-14T12:45:42.891Z,16.80
2019-05-14T12:49:43.814Z,14.80
2019-05-14T12:53:44.677Z,12.90
2019-05-14T12:57:45.612Z,13.80
2019-05-14T13:01:49.042Z,15.50
2019-05-14T13:05:49.546Z,14.50
2019-05-14T13:09:50.431Z,13.70
2019-05-14T13:13:51.429Z,15.30
2019-05-14T13:17:52.419Z,13.50
2019-05-14T13:22:08.771Z,13.40
2019-05-14T13:25:58.395Z,12.80
2019-05-14T13:29:59.248Z,14.70
2019-05-14T13:34:00.306Z,15.60
2019-05-14T13:38:01.195Z,15.20
2019-05-14T13:42:02.171Z,16.10
2019-05-14T13:46:03.456Z,15.80
2019-05-14T13:50:05.032Z,17.30
2019-05-14T13:54:08.341Z,17.90
2019-05-14T13:58:09.627Z,16.00
2019-05-14T14:02:10.839Z,16.30
2019-05-14T14:06:12.069Z,14.50
2019-05-14T14:10:13.304Z,13.60
2019-05-14T14:14:14.400Z,14.00
2019-05-14T14:18:15.599Z,14.50
2019-05-14T14:22:19.525Z,15.20
2019-05-14T14:26:19.774Z,17.30
2019-05-14T14:30:20.870Z,16.90
2019-05-14T14:34:21.764Z,14.90
2019-05-14T14:38:22.890Z,14.90
2019-05-14T14:42:23.783Z,16.90
2019-05-14T14:46:24.776Z,14.20
2019-05-14T14:50:28.681Z,14.60
2019-05-14T14:54:28.911Z,13.70
2019-05-14T14:58:30.071Z,14.50
2019-05-14T15:02:31.367Z,16.60
2019-05-14T15:06:32.391Z,15.10
2019-05-14T15:10:33.374Z,14.90
2019-05-14T15:14:34.280Z,14.20
2019-05-14T15:18:35.151Z,16.90
2019-05-14T15:22:36.108Z,14.90
2019-05-14T15:26:37.121Z,13.60
2019-05-14T15:30:39.538Z,14.20
2019-05-14T15:34:40.890Z,14.70
2019-05-14T15:38:41.802Z,14.30
2019-05-14T15:42:42.899Z,15.80
2019-05-14T15:46:43.903Z,15.10
2019-05-14T15:50:45.545Z,16.80
2019-05-14T15:54:48.031Z,17.20
2019-05-14T15:58:49.341Z,14.80
2019-05-14T16:02:50.524Z,14.20
2019-05-14T16:06:51.619Z,13.60
2019-05-14T16:10:52.775Z,12.90
2019-05-14T16:14:53.641Z,13.60
2019-05-14T16:18:54.755Z,13.50
2019-05-14T16:22:58.832Z,14.00
2019-05-14T16:27:00.502Z,13.60
2019-05-14T16:31:01.987Z,13.30
2019-05-14T16:35:04.407Z,13.70
2019-05-14T16:39:05.789Z,13.20
2019-05-14T16:43:06.899Z,13.50
2019-05-14T16:47:09.907Z,13.10
2019-05-14T16:51:11.275Z,13.40
2019-05-14T16:55:23.563Z,13.70
2019-05-14T16:59:15.372Z,12.80
2019-05-14T17:03:19.076Z,13.20
2019-05-14T17:07:19.642Z,12.90
2019-05-14T17:11:20.603Z,12.80
2019-05-14T17:15:21.970Z,12.80
2019-05-14T17:19:23.184Z,12.80
2019-05-14T17:23:24.339Z,12.70
2019-05-14T17:27:25.245Z,12.90
2019-05-14T17:31:26.266Z,12.90
2019-05-14T17:35:29.606Z,12.70
2019-05-14T17:39:30.154Z,12.80
2019-05-14T17:43:31.290Z,13.00
2019-05-14T17:47:32.251Z,13.20
2019-05-14T17:51:33.264Z,12.90
2019-05-14T17:55:44.609Z,12.20
2019-05-14T17:59:39.098Z,12.80
2019-05-14T18:03:40.397Z,13.00
2019-05-14T18:07:41.476Z,13.50
2019-05-14T18:11:42.627Z,14.60
2019-05-14T18:15:43.602Z,15.10
2019-05-14T18:19:44.592Z,15.90
2019-05-14T18:23:45.565Z,15.70
2019-05-14T18:27:49.660Z,14.80
2019-05-14T18:31:53.341Z,15.20
2019-05-14T18:35:52.457Z,14.90
2019-05-14T18:39:53.385Z,14.50
2019-05-14T18:43:54.428Z,14.50
2019-05-14T18:47:55.674Z,13.90
2019-05-14T18:51:59.116Z,13.60
2019-05-14T18:55:59.865Z,13.00
2019-05-14T19:00:01.078Z,12.20
2019-05-14T19:04:02.257Z,12.10
2019-05-14T19:08:03.631Z,12.40
2019-05-14T19:12:04.847Z,12.20
2019-05-14T19:16:08.347Z,12.00
2019-05-14T19:20:09.718Z,12.00
2019-05-14T19:24:10.604Z,13.30
2019-05-14T19:28:12.807Z,12.30
2019-05-14T19:32:13.730Z,12.80
2019-05-14T19:36:14.627Z,12.90
2019-05-14T19:40:15.734Z,13.70
2019-05-14T19:44:19.037Z,13.20
2019-05-14T19:48:19.722Z,11.70
2019-05-14T19:52:20.749Z,12.50
2019-05-14T19:56:23.538Z,12.10
2019-05-14T20:00:25.508Z,12.50
2019-05-14T20:04:29.003Z,12.50
2019-05-14T20:08:29.715Z,12.40
2019-05-14T20:12:30.932Z,13.30
2019-05-14T20:16:31.897Z,13.20
2019-05-14T20:20:32.972Z,14.10
2019-05-14T20:24:34.163Z,14.10
2019-05-14T20:28:35.264Z,14.10
2019-05-14T20:32:36.268Z,14.30
2019-05-14T20:36:39.019Z,14.40
2019-05-14T20:40:40.258Z,14.40
2019-05-14T20:44:41.191Z,14.10
2019-05-14T20:48:42.263Z,13.90
2019-05-14T20:52:43.362Z,13.70
2019-05-14T20:56:44.259Z,13.60
2019-05-14T21:00:45.299Z,13.80
2019-05-14T21:04:53.426Z,13.80
2019-05-14T21:08:49.235Z,13.60
2019-05-14T21:12:50.208Z,13.40
2019-05-14T21:16:51.112Z,13.10
2019-05-14T21:20:52.253Z,12.90
2019-05-14T21:24:53.430Z,12.80
2019-05-14T21:28:55.436Z,12.70
2019-05-14T21:32:56.497Z,12.60
2019-05-14T21:36:58.510Z,12.60
2019-05-14T21:40:59.562Z,12.30
2019-05-14T21:45:00.551Z,12.20
2019-05-14T21:49:01.416Z,12.30
2019-05-14T21:53:02.415Z,12.00
2019-05-14T21:57:03.287Z,11.90
2019-05-14T22:01:05.021Z,11.80
2019-05-14T22:05:06.287Z,11.00
2019-05-14T22:09:08.739Z,10.30
2019-05-14T22:13:10.093Z,11.10
2019-05-14T22:17:10.979Z,11.70
2019-05-14T22:21:12.027Z,11.60
2019-05-14T22:25:12.884Z,11.50
2019-05-14T22:29:13.812Z,11.40
2019-05-14T22:33:14.896Z,11.40
2019-05-14T22:37:19.892Z,11.20
2019-05-14T22:41:18.650Z,11.00
2019-05-14T22:45:19.661Z,10.90
2019-05-14T22:49:20.641Z,11.00
2019-05-14T22:53:21.621Z,10.80
2019-05-14T22:57:22.519Z,10.70
2019-05-14T23:01:23.429Z,10.60
2019-05-14T23:05:24.511Z,10.40
2019-05-14T23:09:25.494Z,10.20
2019-05-14T23:13:28.076Z,10.00
2019-05-14T23:17:29.325Z,10.30
2019-05-14T23:21:30.259Z,10.30
2019-05-14T23:25:31.227Z,9.90
2019-05-14T23:29:32.306Z,9.60
2019-05-14T23:33:33.265Z,10.00
2019-05-14T23:37:34.235Z,9.60
2019-05-14T23:41:38.169Z,10.10
2019-05-14T23:45:38.364Z,9.40
2019-05-14T23:49:39.789Z,9.90
2019-05-14T23:53:40.755Z,9.90
2019-05-14T23:57:41.647Z,9.30
